Ashland, Illinois
Current Conditions -  °F | °C
As of 10:55 AM on Wednesday 22 Oct 2014 (Local Time) from KIJX Reporting Station
Clear Clear  
Wind Chill: 13°   Ceiling: Unl
Heat Index: 13°   Visibility: 10mi
Dew Point:   Wind: 7mph
Humidity: 65%   Direction: 130°SE
Pressure: 30.34"   Gusts: NA
Location:  39.89°N, 90.01°W
Report Text: KIJX 221555Z AUTO 13006KT 10SM CLR 13/06 A3034 RMK AO2 T01260061
Loading
Personal Weather Stations






























Interactive Weather Map
Tropical Storm Tracking
New forecast layout! Learn more

10-Day Weather Forecast

Advertisements
Track Severe Weather on mobile